sensor_id;sensor_type;location;lat;lon;timestamp;P1;durP1;ratioP1;P2;durP2;ratioP2
63050;SDS011;49136;47.416;19.402;2022-12-10T00:01:02;22.75;;;10.13;;
63050;SDS011;49136;47.416;19.402;2022-12-10T00:03:32;18.08;;;9.50;;
63050;SDS011;49136;47.416;19.402;2022-12-10T00:06:04;22.77;;;10.10;;
63050;SDS011;49136;47.416;19.402;2022-12-10T00:08:32;14.40;;;7.60;;
63050;SDS011;49136;47.416;19.402;2022-12-10T00:10:58;14.77;;;7.53;;
63050;SDS011;49136;47.416;19.402;2022-12-10T00:13:24;17.35;;;8.82;;
63050;SDS011;49136;47.416;19.402;2022-12-10T00:15:49;18.75;;;6.72;;
63050;SDS011;49136;47.416;19.402;2022-12-10T00:18:15;14.00;;;9.02;;
63050;SDS011;49136;47.416;19.402;2022-12-10T00:20:40;23.40;;;10.57;;
63050;SDS011;49136;47.416;19.402;2022-12-10T00:23:05;21.95;;;9.00;;
63050;SDS011;49136;47.416;19.402;2022-12-10T00:25:31;22.90;;;9.38;;
63050;SDS011;49136;47.416;19.402;2022-12-10T00:27:57;19.70;;;9.98;;
63050;SDS011;49136;47.416;19.402;2022-12-10T00:30:23;24.17;;;11.40;;
63050;SDS011;49136;47.416;19.402;2022-12-10T00:32:48;22.00;;;8.40;;
63050;SDS011;49136;47.416;19.402;2022-12-10T00:35:13;36.88;;;12.77;;
63050;SDS011;49136;47.416;19.402;2022-12-10T00:37:39;35.40;;;11.45;;
63050;SDS011;49136;47.416;19.402;2022-12-10T00:40:04;37.40;;;13.70;;
63050;SDS011;49136;47.416;19.402;2022-12-10T00:42:30;34.53;;;11.88;;
63050;SDS011;49136;47.416;19.402;2022-12-10T00:44:56;31.67;;;13.35;;
63050;SDS011;49136;47.416;19.402;2022-12-10T00:47:21;28.15;;;12.30;;
63050;SDS011;49136;47.416;19.402;2022-12-10T00:49:46;28.52;;;10.57;;
63050;SDS011;49136;47.416;19.402;2022-12-10T00:52:12;24.98;;;11.85;;
63050;SDS011;49136;47.416;19.402;2022-12-10T00:54:37;24.80;;;11.48;;
63050;SDS011;49136;47.416;19.402;2022-12-10T00:57:03;32.70;;;11.35;;
63050;SDS011;49136;47.416;19.402;2022-12-10T00:59:28;19.90;;;11.85;;
63050;SDS011;49136;47.416;19.402;2022-12-10T01:01:53;24.83;;;13.13;;
63050;SDS011;49136;47.416;19.402;2022-12-10T01:04:19;24.13;;;11.65;;
63050;SDS011;49136;47.416;19.402;2022-12-10T01:06:48;32.25;;;13.02;;
63050;SDS011;49136;47.416;19.402;2022-12-10T01:09:22;18.38;;;9.05;;
63050;SDS011;49136;47.416;19.402;2022-12-10T01:11:50;25.55;;;11.00;;
63050;SDS011;49136;47.416;19.402;2022-12-10T01:14:18;36.03;;;11.75;;
63050;SDS011;49136;47.416;19.402;2022-12-10T01:16:54;28.60;;;12.00;;
63050;SDS011;49136;47.416;19.402;2022-12-10T01:19:21;22.38;;;10.07;;
63050;SDS011;49136;47.416;19.402;2022-12-10T01:21:53;24.17;;;9.15;;
63050;SDS011;49136;47.416;19.402;2022-12-10T01:24:20;45.58;;;12.80;;
63050;SDS011;49136;47.416;19.402;2022-12-10T01:26:46;31.63;;;11.55;;
63050;SDS011;49136;47.416;19.402;2022-12-10T01:29:12;24.35;;;10.65;;
63050;SDS011;49136;47.416;19.402;2022-12-10T01:31:38;21.90;;;9.85;;
63050;SDS011;49136;47.416;19.402;2022-12-10T01:34:04;26.83;;;9.75;;
63050;SDS011;49136;47.416;19.402;2022-12-10T01:36:33;21.42;;;10.07;;
63050;SDS011;49136;47.416;19.402;2022-12-10T01:39:03;29.83;;;9.48;;
63050;SDS011;49136;47.416;19.402;2022-12-10T01:41:35;25.77;;;9.30;;
63050;SDS011;49136;47.416;19.402;2022-12-10T01:46:30;24.40;;;7.60;;
63050;SDS011;49136;47.416;19.402;2022-12-10T01:48:58;18.30;;;7.55;;
63050;SDS011;49136;47.416;19.402;2022-12-10T01:51:25;27.00;;;10.38;;
63050;SDS011;49136;47.416;19.402;2022-12-10T01:53:53;15.95;;;7.18;;
63050;SDS011;49136;47.416;19.402;2022-12-10T01:56:19;20.98;;;8.93;;
63050;SDS011;49136;47.416;19.402;2022-12-10T01:58:45;13.02;;;7.13;;
63050;SDS011;49136;47.416;19.402;2022-12-10T02:17:11;28.10;;;8.57;;
63050;SDS011;49136;47.416;19.402;2022-12-10T02:22:28;14.60;;;6.20;;
63050;SDS011;49136;47.416;19.402;2022-12-10T02:24:56;19.08;;;7.38;;
63050;SDS011;49136;47.416;19.402;2022-12-10T02:27:26;19.65;;;7.00;;
63050;SDS011;49136;47.416;19.402;2022-12-10T02:29:57;22.52;;;7.68;;
63050;SDS011;49136;47.416;19.402;2022-12-10T02:32:26;25.63;;;7.97;;
63050;SDS011;49136;47.416;19.402;2022-12-10T02:34:58;22.67;;;7.85;;
63050;SDS011;49136;47.416;19.402;2022-12-10T02:37:33;21.33;;;7.68;;
63050;SDS011;49136;47.416;19.402;2022-12-10T02:40:14;21.35;;;7.75;;
63050;SDS011;49136;47.416;19.402;2022-12-10T02:42:43;12.43;;;6.50;;
63050;SDS011;49136;47.416;19.402;2022-12-10T02:45:11;23.98;;;7.35;;
63050;SDS011;49136;47.416;19.402;2022-12-10T02:47:37;24.08;;;8.25;;
63050;SDS011;49136;47.416;19.402;2022-12-10T02:50:05;19.35;;;6.18;;
63050;SDS011;49136;47.416;19.402;2022-12-10T02:52:32;26.00;;;9.38;;
63050;SDS011;49136;47.416;19.402;2022-12-10T02:54:58;22.48;;;7.82;;
63050;SDS011;49136;47.416;19.402;2022-12-10T03:05:19;26.75;;;6.68;;
63050;SDS011;49136;47.416;19.402;2022-12-10T03:07:57;12.25;;;6.03;;
63050;SDS011;49136;47.416;19.402;2022-12-10T03:10:28;14.52;;;6.25;;
63050;SDS011;49136;47.416;19.402;2022-12-10T03:13:10;12.65;;;6.35;;
63050;SDS011;49136;47.416;19.402;2022-12-10T03:15:39;16.33;;;7.10;;
63050;SDS011;49136;47.416;19.402;2022-12-10T03:18:06;14.00;;;5.32;;
63050;SDS011;49136;47.416;19.402;2022-12-10T03:20:38;17.23;;;5.43;;
63050;SDS011;49136;47.416;19.402;2022-12-10T03:23:09;15.13;;;5.07;;
63050;SDS011;49136;47.416;19.402;2022-12-10T03:25:36;23.77;;;6.90;;
63050;SDS011;49136;47.416;19.402;2022-12-10T03:28:03;27.35;;;7.72;;
63050;SDS011;49136;47.416;19.402;2022-12-10T03:30:33;20.45;;;7.53;;
63050;SDS011;49136;47.416;19.402;2022-12-10T03:33:01;17.45;;;6.70;;
63050;SDS011;49136;47.416;19.402;2022-12-10T03:35:27;8.25;;;5.22;;
63050;SDS011;49136;47.416;19.402;2022-12-10T03:37:52;13.00;;;6.40;;
63050;SDS011;49136;47.416;19.402;2022-12-10T03:40:20;18.35;;;7.50;;
63050;SDS011;49136;47.416;19.402;2022-12-10T03:42:47;18.98;;;6.63;;
63050;SDS011;49136;47.416;19.402;2022-12-10T03:45:13;21.08;;;7.97;;
63050;SDS011;49136;47.416;19.402;2022-12-10T03:47:39;17.88;;;7.28;;
63050;SDS011;49136;47.416;19.402;2022-12-10T03:50:05;16.05;;;5.38;;
63050;SDS011;49136;47.416;19.402;2022-12-10T03:52:31;24.05;;;6.13;;
63050;SDS011;49136;47.416;19.402;2022-12-10T03:54:57;14.68;;;6.75;;
63050;SDS011;49136;47.416;19.402;2022-12-10T03:57:22;22.88;;;7.45;;
63050;SDS011;49136;47.416;19.402;2022-12-10T03:59:47;11.25;;;5.85;;
63050;SDS011;49136;47.416;19.402;2022-12-10T04:02:13;12.23;;;6.10;;
63050;SDS011;49136;47.416;19.402;2022-12-10T04:04:38;15.38;;;7.25;;
63050;SDS011;49136;47.416;19.402;2022-12-10T04:07:04;13.50;;;6.53;;
63050;SDS011;49136;47.416;19.402;2022-12-10T04:09:29;23.58;;;6.47;;
63050;SDS011;49136;47.416;19.402;2022-12-10T04:11:55;15.02;;;5.50;;
63050;SDS011;49136;47.416;19.402;2022-12-10T04:14:22;13.60;;;6.60;;
63050;SDS011;49136;47.416;19.402;2022-12-10T04:17:06;8.23;;;5.43;;
63050;SDS011;49136;47.416;19.402;2022-12-10T04:19:31;18.48;;;7.60;;
63050;SDS011;49136;47.416;19.402;2022-12-10T04:21:56;11.23;;;5.25;;
63050;SDS011;49136;47.416;19.402;2022-12-10T04:24:40;13.07;;;5.45;;
63050;SDS011;49136;47.416;19.402;2022-12-10T04:27:29;12.95;;;4.40;;
63050;SDS011;49136;47.416;19.402;2022-12-10T04:29:57;13.00;;;6.63;;
63050;SDS011;49136;47.416;19.402;2022-12-10T04:32:24;18.45;;;6.80;;
63050;SDS011;49136;47.416;19.402;2022-12-10T04:34:50;9.32;;;4.80;;
63050;SDS011;49136;47.416;19.402;2022-12-10T04:37:16;10.85;;;5.97;;
63050;SDS011;49136;47.416;19.402;2022-12-10T04:39:43;14.23;;;5.18;;
63050;SDS011;49136;47.416;19.402;2022-12-10T04:42:09;16.88;;;4.93;;
63050;SDS011;49136;47.416;19.402;2022-12-10T04:44:34;8.80;;;4.28;;
63050;SDS011;49136;47.416;19.402;2022-12-10T04:47:00;10.02;;;4.90;;
63050;SDS011;49136;47.416;19.402;2022-12-10T04:49:26;13.15;;;5.15;;
63050;SDS011;49136;47.416;19.402;2022-12-10T04:51:52;10.30;;;5.22;;
63050;SDS011;49136;47.416;19.402;2022-12-10T04:54:18;9.77;;;4.05;;
63050;SDS011;49136;47.416;19.402;2022-12-10T04:56:44;8.10;;;4.47;;
63050;SDS011;49136;47.416;19.402;2022-12-10T04:59:09;9.98;;;4.47;;
63050;SDS011;49136;47.416;19.402;2022-12-10T05:01:35;16.75;;;5.57;;
63050;SDS011;49136;47.416;19.402;2022-12-10T05:04:02;17.52;;;4.43;;
63050;SDS011;49136;47.416;19.402;2022-12-10T05:06:29;9.30;;;3.67;;
63050;SDS011;49136;47.416;19.402;2022-12-10T05:08:55;11.38;;;4.18;;
63050;SDS011;49136;47.416;19.402;2022-12-10T05:11:23;9.23;;;4.25;;
63050;SDS011;49136;47.416;19.402;2022-12-10T05:13:50;7.78;;;3.20;;
63050;SDS011;49136;47.416;19.402;2022-12-10T05:16:18;7.60;;;4.68;;
63050;SDS011;49136;47.416;19.402;2022-12-10T05:18:44;13.85;;;4.28;;
63050;SDS011;49136;47.416;19.402;2022-12-10T05:21:11;9.48;;;4.05;;
63050;SDS011;49136;47.416;19.402;2022-12-10T05:23:39;8.50;;;5.15;;
63050;SDS011;49136;47.416;19.402;2022-12-10T05:26:13;10.13;;;3.92;;
63050;SDS011;49136;47.416;19.402;2022-12-10T05:28:47;13.57;;;4.47;;
63050;SDS011;49136;47.416;19.402;2022-12-10T05:31:16;11.00;;;4.25;;
63050;SDS011;49136;47.416;19.402;2022-12-10T05:33:48;7.60;;;4.63;;
63050;SDS011;49136;47.416;19.402;2022-12-10T05:36:15;21.25;;;4.20;;
63050;SDS011;49136;47.416;19.402;2022-12-10T05:38:43;13.32;;;4.90;;
63050;SDS011;49136;47.416;19.402;2022-12-10T05:41:13;11.82;;;4.80;;
63050;SDS011;49136;47.416;19.402;2022-12-10T05:43:44;13.98;;;3.83;;
63050;SDS011;49136;47.416;19.402;2022-12-10T05:46:11;18.60;;;4.95;;
63050;SDS011;49136;47.416;19.402;2022-12-10T05:48:40;9.70;;;5.33;;
63050;SDS011;49136;47.416;19.402;2022-12-10T05:51:07;14.85;;;5.47;;
63050;SDS011;49136;47.416;19.402;2022-12-10T05:53:35;9.88;;;5.50;;
63050;SDS011;49136;47.416;19.402;2022-12-10T05:56:09;6.72;;;3.92;;
63050;SDS011;49136;47.416;19.402;2022-12-10T05:58:36;14.20;;;4.85;;
63050;SDS011;49136;47.416;19.402;2022-12-10T06:01:07;7.53;;;4.10;;
63050;SDS011;49136;47.416;19.402;2022-12-10T06:03:33;15.55;;;5.40;;
63050;SDS011;49136;47.416;19.402;2022-12-10T06:05:59;9.65;;;4.90;;
63050;SDS011;49136;47.416;19.402;2022-12-10T06:08:24;21.35;;;3.45;;
63050;SDS011;49136;47.416;19.402;2022-12-10T06:10:49;11.45;;;4.85;;
63050;SDS011;49136;47.416;19.402;2022-12-10T06:13:15;12.82;;;4.90;;
63050;SDS011;49136;47.416;19.402;2022-12-10T06:15:41;12.25;;;4.47;;
63050;SDS011;49136;47.416;19.402;2022-12-10T06:18:07;10.50;;;4.47;;
63050;SDS011;49136;47.416;19.402;2022-12-10T06:20:32;6.63;;;3.53;;
63050;SDS011;49136;47.416;19.402;2022-12-10T06:22:58;20.70;;;6.57;;
63050;SDS011;49136;47.416;19.402;2022-12-10T06:25:23;16.20;;;5.80;;
63050;SDS011;49136;47.416;19.402;2022-12-10T06:27:49;12.10;;;4.72;;
63050;SDS011;49136;47.416;19.402;2022-12-10T06:30:15;19.45;;;7.13;;
63050;SDS011;49136;47.416;19.402;2022-12-10T06:32:41;12.93;;;5.00;;
63050;SDS011;49136;47.416;19.402;2022-12-10T06:35:08;14.05;;;5.38;;
63050;SDS011;49136;47.416;19.402;2022-12-10T06:37:35;10.85;;;4.40;;
63050;SDS011;49136;47.416;19.402;2022-12-10T06:40:00;15.82;;;6.65;;
63050;SDS011;49136;47.416;19.402;2022-12-10T06:42:26;18.13;;;7.43;;
63050;SDS011;49136;47.416;19.402;2022-12-10T06:44:52;16.30;;;5.93;;
63050;SDS011;49136;47.416;19.402;2022-12-10T06:47:18;20.52;;;7.35;;
63050;SDS011;49136;47.416;19.402;2022-12-10T06:49:43;9.60;;;4.70;;
63050;SDS011;49136;47.416;19.402;2022-12-10T06:52:09;15.57;;;6.00;;
63050;SDS011;49136;47.416;19.402;2022-12-10T06:54:34;17.13;;;6.32;;
63050;SDS011;49136;47.416;19.402;2022-12-10T06:57:00;14.07;;;6.03;;
63050;SDS011;49136;47.416;19.402;2022-12-10T06:59:25;21.92;;;7.30;;
63050;SDS011;49136;47.416;19.402;2022-12-10T07:01:51;12.35;;;5.28;;
63050;SDS011;49136;47.416;19.402;2022-12-10T07:04:16;21.50;;;7.80;;
63050;SDS011;49136;47.416;19.402;2022-12-10T07:06:42;21.23;;;7.07;;
63050;SDS011;49136;47.416;19.402;2022-12-10T07:09:07;14.25;;;8.32;;
63050;SDS011;49136;47.416;19.402;2022-12-10T07:11:34;13.38;;;5.22;;
63050;SDS011;49136;47.416;19.402;2022-12-10T07:14:00;17.33;;;5.65;;
63050;SDS011;49136;47.416;19.402;2022-12-10T07:16:27;19.40;;;8.13;;
63050;SDS011;49136;47.416;19.402;2022-12-10T07:18:54;15.38;;;7.43;;
63050;SDS011;49136;47.416;19.402;2022-12-10T07:21:22;23.85;;;7.65;;
63050;SDS011;49136;47.416;19.402;2022-12-10T07:23:49;18.17;;;6.38;;
63050;SDS011;49136;47.416;19.402;2022-12-10T07:26:15;18.65;;;7.30;;
63050;SDS011;49136;47.416;19.402;2022-12-10T07:28:41;25.67;;;10.13;;
63050;SDS011;49136;47.416;19.402;2022-12-10T07:31:07;20.33;;;8.18;;
63050;SDS011;49136;47.416;19.402;2022-12-10T07:33:34;14.90;;;6.22;;
63050;SDS011;49136;47.416;19.402;2022-12-10T07:36:02;24.83;;;8.70;;
63050;SDS011;49136;47.416;19.402;2022-12-10T07:38:33;19.42;;;8.55;;
63050;SDS011;49136;47.416;19.402;2022-12-10T07:46:18;10.85;;;5.97;;
63050;SDS011;49136;47.416;19.402;2022-12-10T07:48:52;16.88;;;6.20;;
63050;SDS011;49136;47.416;19.402;2022-12-10T07:51:18;15.77;;;7.53;;
63050;SDS011;49136;47.416;19.402;2022-12-10T07:53:45;18.15;;;8.35;;
63050;SDS011;49136;47.416;19.402;2022-12-10T07:56:11;17.95;;;7.10;;
63050;SDS011;49136;47.416;19.402;2022-12-10T07:58:40;30.08;;;9.90;;
63050;SDS011;49136;47.416;19.402;2022-12-10T08:01:10;21.13;;;9.25;;
63050;SDS011;49136;47.416;19.402;2022-12-10T08:03:38;30.55;;;13.63;;
63050;SDS011;49136;47.416;19.402;2022-12-10T08:06:04;18.63;;;8.80;;
63050;SDS011;49136;47.416;19.402;2022-12-10T08:08:40;15.57;;;8.25;;
63050;SDS011;49136;47.416;19.402;2022-12-10T08:11:07;20.63;;;8.38;;
63050;SDS011;49136;47.416;19.402;2022-12-10T08:13:34;17.35;;;9.25;;
63050;SDS011;49136;47.416;19.402;2022-12-10T08:16:04;21.80;;;8.60;;
63050;SDS011;49136;47.416;19.402;2022-12-10T08:18:32;21.65;;;8.68;;
63050;SDS011;49136;47.416;19.402;2022-12-10T08:21:02;18.67;;;9.25;;
63050;SDS011;49136;47.416;19.402;2022-12-10T08:23:29;21.40;;;7.03;;
63050;SDS011;49136;47.416;19.402;2022-12-10T08:25:55;26.85;;;8.48;;
63050;SDS011;49136;47.416;19.402;2022-12-10T08:28:20;17.95;;;8.38;;
63050;SDS011;49136;47.416;19.402;2022-12-10T08:30:46;21.05;;;7.65;;
63050;SDS011;49136;47.416;19.402;2022-12-10T08:33:12;25.17;;;8.13;;
63050;SDS011;49136;47.416;19.402;2022-12-10T08:35:38;24.30;;;10.02;;
63050;SDS011;49136;47.416;19.402;2022-12-10T08:38:04;18.25;;;8.50;;
63050;SDS011;49136;47.416;19.402;2022-12-10T08:40:29;30.00;;;9.93;;
63050;SDS011;49136;47.416;19.402;2022-12-10T08:42:55;17.15;;;8.45;;
63050;SDS011;49136;47.416;19.402;2022-12-10T08:45:20;20.90;;;7.82;;
63050;SDS011;49136;47.416;19.402;2022-12-10T08:47:46;20.80;;;8.95;;
63050;SDS011;49136;47.416;19.402;2022-12-10T08:50:11;22.75;;;9.55;;
63050;SDS011;49136;47.416;19.402;2022-12-10T08:52:37;20.58;;;8.85;;
63050;SDS011;49136;47.416;19.402;2022-12-10T08:55:02;19.05;;;9.40;;
63050;SDS011;49136;47.416;19.402;2022-12-10T08:57:28;20.13;;;7.93;;
63050;SDS011;49136;47.416;19.402;2022-12-10T08:59:54;13.93;;;6.07;;
63050;SDS011;49136;47.416;19.402;2022-12-10T09:02:19;12.32;;;5.72;;
63050;SDS011;49136;47.416;19.402;2022-12-10T09:04:44;19.35;;;5.75;;
63050;SDS011;49136;47.416;19.402;2022-12-10T09:07:11;20.38;;;6.95;;
63050;SDS011;49136;47.416;19.402;2022-12-10T09:09:37;17.40;;;6.65;;
63050;SDS011;49136;47.416;19.402;2022-12-10T09:12:02;24.02;;;6.82;;
63050;SDS011;49136;47.416;19.402;2022-12-10T09:14:28;12.57;;;5.55;;
63050;SDS011;49136;47.416;19.402;2022-12-10T09:16:53;16.45;;;5.95;;
63050;SDS011;49136;47.416;19.402;2022-12-10T09:19:19;19.25;;;6.38;;
63050;SDS011;49136;47.416;19.402;2022-12-10T09:21:44;18.02;;;7.40;;
63050;SDS011;49136;47.416;19.402;2022-12-10T09:24:09;14.20;;;7.32;;
63050;SDS011;49136;47.416;19.402;2022-12-10T09:26:35;26.58;;;9.07;;
63050;SDS011;49136;47.416;19.402;2022-12-10T09:29:02;20.13;;;9.40;;
63050;SDS011;49136;47.416;19.402;2022-12-10T09:31:29;24.20;;;8.82;;
63050;SDS011;49136;47.416;19.402;2022-12-10T09:33:55;21.42;;;8.48;;
63050;SDS011;49136;47.416;19.402;2022-12-10T09:36:21;16.02;;;7.03;;
63050;SDS011;49136;47.416;19.402;2022-12-10T09:38:47;22.65;;;7.85;;
63050;SDS011;49136;47.416;19.402;2022-12-10T09:43:48;30.65;;;11.15;;
63050;SDS011;49136;47.416;19.402;2022-12-10T09:51:55;27.80;;;8.27;;
63050;SDS011;49136;47.416;19.402;2022-12-10T09:54:31;31.77;;;10.70;;
63050;SDS011;49136;47.416;19.402;2022-12-10T09:56:59;29.33;;;7.95;;
63050;SDS011;49136;47.416;19.402;2022-12-10T09:59:30;27.20;;;10.00;;
63050;SDS011;49136;47.416;19.402;2022-12-10T10:02:11;23.48;;;8.68;;
63050;SDS011;49136;47.416;19.402;2022-12-10T10:04:45;22.73;;;7.68;;
63050;SDS011;49136;47.416;19.402;2022-12-10T10:07:24;23.10;;;7.60;;
63050;SDS011;49136;47.416;19.402;2022-12-10T10:09:55;17.67;;;7.75;;
63050;SDS011;49136;47.416;19.402;2022-12-10T10:12:23;15.02;;;6.57;;
63050;SDS011;49136;47.416;19.402;2022-12-10T10:14:51;15.20;;;7.65;;
63050;SDS011;49136;47.416;19.402;2022-12-10T10:20:02;24.40;;;7.82;;
63050;SDS011;49136;47.416;19.402;2022-12-10T10:22:28;17.15;;;7.72;;
63050;SDS011;49136;47.416;19.402;2022-12-10T10:24:55;17.27;;;7.95;;
63050;SDS011;49136;47.416;19.402;2022-12-10T10:27:22;17.45;;;6.57;;
63050;SDS011;49136;47.416;19.402;2022-12-10T10:29:52;19.63;;;8.40;;
63050;SDS011;49136;47.416;19.402;2022-12-10T10:34:54;24.90;;;10.60;;
63050;SDS011;49136;47.416;19.402;2022-12-10T10:37:25;25.27;;;9.02;;
63050;SDS011;49136;47.416;19.402;2022-12-10T10:39:53;22.45;;;8.35;;
63050;SDS011;49136;47.416;19.402;2022-12-10T10:42:23;27.00;;;9.75;;
63050;SDS011;49136;47.416;19.402;2022-12-10T10:45:05;23.02;;;9.30;;
63050;SDS011;49136;47.416;19.402;2022-12-10T10:50:38;15.98;;;7.63;;
63050;SDS011;49136;47.416;19.402;2022-12-10T10:55:53;27.98;;;8.00;;
63050;SDS011;49136;47.416;19.402;2022-12-10T10:58:21;19.48;;;8.77;;
63050;SDS011;49136;47.416;19.402;2022-12-10T11:00:57;23.60;;;7.20;;
63050;SDS011;49136;47.416;19.402;2022-12-10T11:03:32;23.95;;;8.98;;
63050;SDS011;49136;47.416;19.402;2022-12-10T11:06:00;15.07;;;7.10;;
63050;SDS011;49136;47.416;19.402;2022-12-10T11:08:30;22.15;;;10.02;;
63050;SDS011;49136;47.416;19.402;2022-12-10T11:11:03;27.90;;;9.52;;
63050;SDS011;49136;47.416;19.402;2022-12-10T11:13:32;21.52;;;7.15;;
63050;SDS011;49136;47.416;19.402;2022-12-10T11:18:37;19.08;;;8.32;;
63050;SDS011;49136;47.416;19.402;2022-12-10T11:23:40;58.95;;;21.23;;
63050;SDS011;49136;47.416;19.402;2022-12-10T11:36:37;20.58;;;7.95;;
63050;SDS011;49136;47.416;19.402;2022-12-10T11:39:28;18.67;;;9.50;;
63050;SDS011;49136;47.416;19.402;2022-12-10T11:50:47;33.25;;;10.23;;
63050;SDS011;49136;47.416;19.402;2022-12-10T11:53:36;30.58;;;9.73;;
63050;SDS011;49136;47.416;19.402;2022-12-10T12:04:23;25.90;;;9.38;;
63050;SDS011;49136;47.416;19.402;2022-12-10T12:07:13;18.55;;;7.85;;
63050;SDS011;49136;47.416;19.402;2022-12-10T12:09:52;22.75;;;9.50;;
63050;SDS011;49136;47.416;19.402;2022-12-10T12:17:56;54.90;;;20.42;;
63050;SDS011;49136;47.416;19.402;2022-12-10T12:20:43;49.20;;;17.88;;
63050;SDS011;49136;47.416;19.402;2022-12-10T12:23:18;37.00;;;14.45;;
63050;SDS011;49136;47.416;19.402;2022-12-10T12:25:54;32.45;;;12.57;;
63050;SDS011;49136;47.416;19.402;2022-12-10T12:31:07;11.65;;;5.47;;
63050;SDS011;49136;47.416;19.402;2022-12-10T12:33:41;29.45;;;10.30;;
63050;SDS011;49136;47.416;19.402;2022-12-10T12:36:17;25.52;;;10.88;;
63050;SDS011;49136;47.416;19.402;2022-12-10T12:47:31;27.23;;;10.40;;
63050;SDS011;49136;47.416;19.402;2022-12-10T12:50:03;25.95;;;10.55;;
63050;SDS011;49136;47.416;19.402;2022-12-10T12:55:14;17.95;;;10.15;;
63050;SDS011;49136;47.416;19.402;2022-12-10T12:57:52;25.85;;;11.95;;
63050;SDS011;49136;47.416;19.402;2022-12-10T13:00:22;23.25;;;12.70;;
63050;SDS011;49136;47.416;19.402;2022-12-10T13:05:26;25.85;;;8.90;;
63050;SDS011;49136;47.416;19.402;2022-12-10T13:10:58;21.33;;;8.45;;
63050;SDS011;49136;47.416;19.402;2022-12-10T13:19:16;21.02;;;9.65;;
63050;SDS011;49136;47.416;19.402;2022-12-10T13:21:57;38.95;;;12.40;;
63050;SDS011;49136;47.416;19.402;2022-12-10T13:24:46;21.30;;;8.07;;
63050;SDS011;49136;47.416;19.402;2022-12-10T13:27:30;27.15;;;10.93;;
63050;SDS011;49136;47.416;19.402;2022-12-10T13:30:45;28.42;;;14.02;;
63050;SDS011;49136;47.416;19.402;2022-12-10T13:33:03;24.70;;;8.82;;
63050;SDS011;49136;47.416;19.402;2022-12-10T13:35:42;19.02;;;7.82;;
63050;SDS011;49136;47.416;19.402;2022-12-10T13:38:22;19.15;;;8.20;;
63050;SDS011;49136;47.416;19.402;2022-12-10T13:41:02;23.52;;;8.45;;
63050;SDS011;49136;47.416;19.402;2022-12-10T13:43:56;18.70;;;7.97;;
63050;SDS011;49136;47.416;19.402;2022-12-10T13:49:20;23.77;;;10.88;;
63050;SDS011;49136;47.416;19.402;2022-12-10T14:00:33;36.72;;;12.52;;
63050;SDS011;49136;47.416;19.402;2022-12-10T14:05:54;31.30;;;12.02;;
63050;SDS011;49136;47.416;19.402;2022-12-10T14:08:23;42.75;;;14.13;;
63050;SDS011;49136;47.416;19.402;2022-12-10T14:10:53;21.80;;;10.82;;
63050;SDS011;49136;47.416;19.402;2022-12-10T14:13:19;16.75;;;7.43;;
63050;SDS011;49136;47.416;19.402;2022-12-10T14:15:57;20.85;;;9.82;;
63050;SDS011;49136;47.416;19.402;2022-12-10T14:18:25;25.45;;;12.50;;
63050;SDS011;49136;47.416;19.402;2022-12-10T14:20:53;43.60;;;15.55;;
63050;SDS011;49136;47.416;19.402;2022-12-10T14:23:26;39.45;;;14.40;;
63050;SDS011;49136;47.416;19.402;2022-12-10T14:26:12;34.70;;;12.80;;
63050;SDS011;49136;47.416;19.402;2022-12-10T14:28:41;20.33;;;7.63;;
63050;SDS011;49136;47.416;19.402;2022-12-10T14:31:12;32.50;;;10.50;;
63050;SDS011;49136;47.416;19.402;2022-12-10T14:33:41;23.33;;;9.25;;
63050;SDS011;49136;47.416;19.402;2022-12-10T14:36:13;33.88;;;15.57;;
63050;SDS011;49136;47.416;19.402;2022-12-10T14:38:41;25.77;;;12.00;;
63050;SDS011;49136;47.416;19.402;2022-12-10T14:41:10;19.38;;;10.25;;
63050;SDS011;49136;47.416;19.402;2022-12-10T14:43:39;20.98;;;10.90;;
63050;SDS011;49136;47.416;19.402;2022-12-10T14:46:09;23.50;;;9.20;;
63050;SDS011;49136;47.416;19.402;2022-12-10T14:48:40;30.80;;;10.25;;
63050;SDS011;49136;47.416;19.402;2022-12-10T14:51:15;25.60;;;9.50;;
63050;SDS011;49136;47.416;19.402;2022-12-10T14:53:44;24.38;;;10.18;;
63050;SDS011;49136;47.416;19.402;2022-12-10T14:56:13;35.58;;;16.13;;
63050;SDS011;49136;47.416;19.402;2022-12-10T14:58:46;27.88;;;12.48;;
63050;SDS011;49136;47.416;19.402;2022-12-10T15:01:28;26.20;;;12.00;;
63050;SDS011;49136;47.416;19.402;2022-12-10T15:03:58;27.38;;;12.50;;
63050;SDS011;49136;47.416;19.402;2022-12-10T15:06:26;20.75;;;9.27;;
63050;SDS011;49136;47.416;19.402;2022-12-10T15:08:53;27.42;;;10.65;;
63050;SDS011;49136;47.416;19.402;2022-12-10T15:11:23;32.65;;;14.88;;
63050;SDS011;49136;47.416;19.402;2022-12-10T15:14:00;28.85;;;9.95;;
63050;SDS011;49136;47.416;19.402;2022-12-10T15:19:13;21.92;;;9.60;;
63050;SDS011;49136;47.416;19.402;2022-12-10T15:21:44;33.20;;;12.38;;
63050;SDS011;49136;47.416;19.402;2022-12-10T15:26:49;23.63;;;10.13;;
63050;SDS011;49136;47.416;19.402;2022-12-10T15:31:47;16.63;;;8.30;;
63050;SDS011;49136;47.416;19.402;2022-12-10T15:34:14;21.00;;;9.80;;
63050;SDS011;49136;47.416;19.402;2022-12-10T15:36:41;19.17;;;8.57;;
63050;SDS011;49136;47.416;19.402;2022-12-10T15:41:45;34.90;;;10.75;;
63050;SDS011;49136;47.416;19.402;2022-12-10T15:44:31;22.13;;;8.10;;
63050;SDS011;49136;47.416;19.402;2022-12-10T15:49:39;25.23;;;10.00;;
63050;SDS011;49136;47.416;19.402;2022-12-10T15:52:05;26.45;;;10.25;;
63050;SDS011;49136;47.416;19.402;2022-12-10T15:54:32;26.55;;;11.23;;
63050;SDS011;49136;47.416;19.402;2022-12-10T15:57:06;37.72;;;13.73;;
63050;SDS011;49136;47.416;19.402;2022-12-10T15:59:40;24.73;;;10.88;;
63050;SDS011;49136;47.416;19.402;2022-12-10T16:02:25;22.30;;;9.68;;
63050;SDS011;49136;47.416;19.402;2022-12-10T16:07:40;19.33;;;9.60;;
63050;SDS011;49136;47.416;19.402;2022-12-10T16:10:06;22.27;;;9.70;;
63050;SDS011;49136;47.416;19.402;2022-12-10T16:12:34;16.00;;;8.73;;
63050;SDS011;49136;47.416;19.402;2022-12-10T16:15:02;29.33;;;12.95;;
63050;SDS011;49136;47.416;19.402;2022-12-10T16:17:29;24.83;;;9.90;;
63050;SDS011;49136;47.416;19.402;2022-12-10T16:19:59;17.98;;;9.18;;
63050;SDS011;49136;47.416;19.402;2022-12-10T16:22:30;24.15;;;8.98;;
63050;SDS011;49136;47.416;19.402;2022-12-10T16:24:56;16.20;;;9.15;;
63050;SDS011;49136;47.416;19.402;2022-12-10T16:27:22;21.40;;;9.82;;
63050;SDS011;49136;47.416;19.402;2022-12-10T16:29:52;23.33;;;11.23;;
63050;SDS011;49136;47.416;19.402;2022-12-10T16:32:18;21.63;;;10.00;;
63050;SDS011;49136;47.416;19.402;2022-12-10T16:34:45;18.52;;;11.30;;
63050;SDS011;49136;47.416;19.402;2022-12-10T16:37:13;38.50;;;15.05;;
63050;SDS011;49136;47.416;19.402;2022-12-10T16:39:39;26.48;;;11.07;;
63050;SDS011;49136;47.416;19.402;2022-12-10T16:42:07;26.20;;;10.98;;
63050;SDS011;49136;47.416;19.402;2022-12-10T16:44:35;25.48;;;9.60;;
63050;SDS011;49136;47.416;19.402;2022-12-10T16:47:00;16.20;;;7.90;;
63050;SDS011;49136;47.416;19.402;2022-12-10T16:49:26;27.13;;;9.82;;
63050;SDS011;49136;47.416;19.402;2022-12-10T16:51:52;24.88;;;10.65;;
63050;SDS011;49136;47.416;19.402;2022-12-10T16:54:18;14.80;;;8.50;;
63050;SDS011;49136;47.416;19.402;2022-12-10T16:56:44;29.42;;;10.27;;